Time;durP1;ratioP1;P1;durP2;ratioP2;P2;SDS_P1;SDS_P2;PMS_P1;PMS_P2;Temp;Humidity;BMP_temperature;BMP_pressure;BME280_temperature;BME280_humidity;BME280_pressure;Samples;Min_cycle;Max_cycle;Signal;HPM_P1;HPM_P2
2024/03/25 00:00:32;;;;;;;7.55;5.13;;;;;;;6.80;66.71;98238.13;5091905;28;20027;-49
2024/03/25 00:02:58;;;;;;;9.05;5.38;;;;;;;6.82;65.59;98228.31;5090666;28;20032;-48
2024/03/25 00:05:25;;;;;;;8.45;5.68;;;;;;;6.71;65.07;98221.00;5090909;28;20089;-49
2024/03/25 00:07:51;;;;;;;9.52;5.28;;;;;;;6.52;65.48;98206.78;5090620;28;20054;-48
2024/03/25 00:10:18;;;;;;;8.45;4.93;;;;;;;6.23;66.06;98207.69;5090451;28;20062;-49
2024/03/25 00:12:43;;;;;;;8.15;4.53;;;;;;;6.01;66.42;98199.81;5091791;28;20024;-48
2024/03/25 00:15:09;;;;;;;9.55;5.80;;;;;;;5.89;67.27;98196.03;5091836;28;20039;-48
2024/03/25 00:17:35;;;;;;;8.32;5.20;;;;;;;5.80;67.57;98190.16;5090489;28;20028;-49
2024/03/25 00:20:01;;;;;;;11.57;6.15;;;;;;;5.77;67.63;98188.69;5090498;28;20490;-49
2024/03/25 00:22:27;;;;;;;9.43;6.45;;;;;;;5.64;68.20;98191.16;5073691;28;20064;-48
2024/03/25 00:24:53;;;;;;;8.65;5.85;;;;;;;5.48;67.67;98184.31;5090437;28;20024;-48
2024/03/25 00:27:18;;;;;;;13.93;5.72;;;;;;;5.43;68.31;98181.44;5090441;28;20032;-48
2024/03/25 00:29:44;;;;;;;11.77;5.45;;;;;;;5.42;68.61;98168.63;5091988;28;20051;-48
2024/03/25 00:32:10;;;;;;;12.40;5.88;;;;;;;5.37;68.67;98162.19;5091412;28;20059;-48
2024/03/25 00:34:37;;;;;;;9.52;6.35;;;;;;;5.46;69.67;98156.88;5090703;28;20409;-48
2024/03/25 00:37:03;;;;;;;14.27;6.07;;;;;;;5.40;69.33;98156.59;5090611;28;20035;-48
2024/03/25 00:39:32;;;;;;;11.60;5.82;;;;;;;5.27;69.23;98153.84;5090217;28;20593;-48
2024/03/25 00:41:58;;;;;;;8.27;5.20;;;;;;;5.15;69.35;98156.06;5091542;28;20032;-48
2024/03/25 00:44:24;;;;;;;10.43;5.80;;;;;;;5.19;69.58;98156.50;5091578;28;20080;-48
2024/03/25 00:46:50;;;;;;;11.38;5.82;;;;;;;5.24;69.70;98148.97;5091428;28;20035;-48
2024/03/25 00:49:15;;;;;;;11.70;5.97;;;;;;;5.39;69.33;98136.78;5090235;28;20028;-48
2024/03/25 00:51:41;;;;;;;8.98;5.20;;;;;;;5.63;69.41;98141.84;5091374;28;20020;-48
2024/03/25 00:54:07;;;;;;;15.13;5.95;;;;;;;5.81;69.62;98137.06;5090503;28;20032;-48
2024/03/25 00:56:32;;;;;;;9.35;5.70;;;;;;;5.78;68.17;98137.44;5090126;28;20116;-48
2024/03/25 00:59:02;;;;;;;15.02;6.43;;;;;;;5.56;68.37;98137.38;5090130;28;20028;-48
2024/03/25 01:01:28;;;;;;;8.05;4.40;;;;;;;5.36;69.04;98139.72;5091379;28;20031;-48
2024/03/25 01:03:54;;;;;;;19.58;13.13;;;;;;;5.31;68.42;98136.88;5090356;28;20101;-48
2024/03/25 01:06:20;;;;;;;11.77;7.53;;;;;;;5.19;68.41;98131.31;5091327;28;20497;-48
2024/03/25 01:08:46;;;;;;;9.63;5.28;;;;;;;5.08;68.89;98131.75;5090159;28;20433;-48
2024/03/25 01:11:12;;;;;;;6.70;4.55;;;;;;;5.02;69.23;98135.06;5089960;28;20034;-48
2024/03/25 01:13:37;;;;;;;9.95;5.15;;;;;;;4.98;69.61;98128.59;5091247;28;20035;-48
2024/03/25 01:16:03;;;;;;;8.65;5.57;;;;;;;4.91;69.81;98132.88;5090199;28;20553;-48
2024/03/25 01:18:29;;;;;;;10.43;5.40;;;;;;;4.83;69.77;98131.19;5089922;28;20043;-48
2024/03/25 01:20:54;;;;;;;10.90;5.68;;;;;;;4.79;70.50;98128.13;5092400;28;20028;-48
2024/03/25 01:23:20;;;;;;;9.82;4.97;;;;;;;4.90;71.17;98111.28;5094960;28;20099;-48
2024/03/25 01:25:46;;;;;;;9.30;5.60;;;;;;;4.96;71.12;98112.38;5093518;28;20119;-48
2024/03/25 01:28:12;;;;;;;12.50;5.47;;;;;;;4.93;70.73;98113.53;5093527;28;20024;-48
2024/03/25 01:30:39;;;;;;;11.50;5.35;;;;;;;4.90;70.32;98110.47;5093416;28;20051;-48
2024/03/25 01:33:05;;;;;;;17.75;5.35;;;;;;;5.09;70.96;98103.94;5094367;28;20048;-48
2024/03/25 01:35:31;;;;;;;10.95;5.32;;;;;;;5.16;70.09;98110.06;5093354;28;20028;-48
2024/03/25 01:37:58;;;;;;;12.90;5.53;;;;;;;5.15;70.51;98104.03;5093295;28;20405;-48
2024/03/25 01:40:24;;;;;;;11.63;6.30;;;;;;;5.11;70.43;98100.19;5094538;28;20101;-48
2024/03/25 01:43:00;;;;;;;10.10;6.10;;;;;;;5.16;70.60;98092.63;5093168;28;20024;-48
2024/03/25 01:45:27;;;;;;;9.95;5.38;;;;;;;5.10;70.10;98087.34;5093161;28;20410;-48
2024/03/25 01:47:54;;;;;;;13.90;6.07;;;;;;;4.92;70.80;98092.91;5094441;28;20069;-49
2024/03/25 01:50:21;;;;;;;10.63;4.65;;;;;;;4.84;70.19;98087.81;5092977;28;20024;-48
2024/03/25 01:52:49;;;;;;;12.52;4.90;;;;;;;4.69;71.03;98080.78;5092920;28;20028;-48
2024/03/25 01:55:22;;;;;;;15.45;6.88;;;;;;;4.66;71.02;98082.94;5092972;28;20024;-48
2024/03/25 01:57:48;;;;;;;10.10;5.65;;;;;;;4.75;71.08;98074.09;5092933;28;20035;-48
2024/03/25 02:00:16;;;;;;;7.68;5.80;;;;;;;4.86;71.21;98067.63;5092802;28;20447;-48
2024/03/25 02:02:44;;;;;;;8.82;5.03;;;;;;;5.04;71.46;98068.06;5092785;28;20062;-48
2024/03/25 02:05:15;;;;;;;8.70;4.50;;;;;;;4.90;71.04;98063.69;5094017;28;20020;-48
2024/03/25 02:07:41;;;;;;;8.30;4.72;;;;;;;4.84;71.40;98056.59;5092744;28;20126;-48
2024/03/25 02:10:10;;;;;;;6.50;5.00;;;;;;;4.89;71.80;98060.28;5092649;28;20565;-48
2024/03/25 02:12:43;;;;;;;8.90;6.25;;;;;;;4.72;71.57;98057.03;5092583;28;20453;-48
2024/03/25 02:15:10;;;;;;;13.10;7.07;;;;;;;4.58;71.73;98053.44;5092664;28;20515;-48
2024/03/25 02:17:37;;;;;;;9.35;6.03;;;;;;;4.51;72.43;98052.53;5093903;28;20027;-48
2024/03/25 02:20:05;;;;;;;16.85;9.98;;;;;;;4.55;72.57;98047.81;5092496;28;20028;-48
2024/03/25 02:22:31;;;;;;;20.00;15.70;;;;;;;4.67;72.70;98041.19;5093797;28;20027;-48
2024/03/25 02:24:58;;;;;;;30.10;23.88;;;;;;;4.75;72.42;98040.28;5093737;28;20070;-48
2024/03/25 02:27:32;;;;;;;13.68;11.25;;;;;;;4.76;71.72;98036.69;5092322;28;20047;-49
2024/03/25 02:30:09;;;;;;;14.60;10.95;;;;;;;4.54;71.48;98033.97;5093701;28;20024;-48
2024/03/25 02:32:35;;;;;;;9.40;4.68;;;;;;;4.72;71.91;98040.63;5092166;28;20059;-49
2024/03/25 02:35:03;;;;;;;7.63;4.13;;;;;;;4.75;70.96;98032.50;5093524;28;20023;-48
2024/03/25 02:37:29;;;;;;;10.13;4.75;;;;;;;4.81;71.50;98031.78;5093439;28;20036;-48
2024/03/25 02:39:58;;;;;;;12.05;6.90;;;;;;;4.73;71.45;98027.47;5093433;28;20055;-48
2024/03/25 02:42:28;;;;;;;24.40;21.80;;;;;;;4.72;71.50;98014.66;5075311;28;20026;-48
2024/03/25 02:44:58;;;;;;;8.70;5.80;;;;;;;4.68;71.30;98024.59;5092299;28;20114;-48
2024/03/25 02:47:25;;;;;;;9.35;5.90;;;;;;;4.51;71.14;98016.16;5091938;28;20035;-48
2024/03/25 02:49:51;;;;;;;12.60;6.53;;;;;;;4.21;71.25;97999.72;5091899;28;20028;-48
2024/03/25 02:52:17;;;;;;;12.60;7.78;;;;;;;4.17;72.56;98001.88;5091743;28;20050;-48
2024/03/25 02:54:43;;;;;;;8.20;5.75;;;;;;;4.24;72.71;97994.16;5091848;28;20490;-48
2024/03/25 02:57:09;;;;;;;8.57;4.97;;;;;;;4.28;72.75;97989.44;5093367;28;20028;-48
2024/03/25 02:59:34;;;;;;;5.97;4.63;;;;;;;4.44;72.67;97991.88;5092989;28;20429;-48
2024/03/25 03:02:00;;;;;;;9.60;8.30;;;;;;;4.51;72.14;97987.59;5093020;28;20099;-48
2024/03/25 03:04:26;;;;;;;8.95;4.30;;;;;;;4.55;71.71;97978.44;5092932;28;20024;-48
2024/03/25 03:06:51;;;;;;;9.45;4.57;;;;;;;4.37;71.38;97980.59;5091563;28;20508;-48
2024/03/25 03:09:17;;;;;;;8.77;4.78;;;;;;;4.30;71.97;97985.66;5092896;28;20016;-49
2024/03/25 03:11:43;;;;;;;7.30;4.00;;;;;;;4.35;72.60;97980.75;5092696;28;20024;-48
2024/03/25 03:14:09;;;;;;;9.30;3.70;;;;;;;4.37;71.77;97972.78;5092760;28;20601;-48
2024/03/25 03:16:35;;;;;;;6.32;3.67;;;;;;;4.40;71.96;97970.63;5092713;28;20020;-48
2024/03/25 03:19:00;;;;;;;6.85;4.28;;;;;;;4.41;72.08;97971.47;5091363;28;20057;-48
2024/03/25 03:21:26;;;;;;;6.57;3.75;;;;;;;4.50;71.96;97967.78;5091326;28;20024;-48
2024/03/25 03:23:52;;;;;;;8.45;4.10;;;;;;;4.67;71.74;97957.19;5092573;28;20024;-48
2024/03/25 03:26:17;;;;;;;8.18;4.22;;;;;;;4.71;71.23;97958.44;5091214;28;20028;-48
2024/03/25 03:28:43;;;;;;;7.68;3.92;;;;;;;4.78;71.08;97967.13;5092459;28;20020;-48
2024/03/25 03:31:09;;;;;;;8.60;4.75;;;;;;;4.79;71.40;97956.56;5090876;28;20032;-49
2024/03/25 03:33:34;;;;;;;10.23;4.80;;;;;;;5.11;71.88;97964.94;5091299;28;20024;-48
2024/03/25 03:36:01;;;;;;;7.50;3.45;;;;;;;5.35;70.84;97956.00;5091064;28;20032;-48
2024/03/25 03:38:27;;;;;;;8.75;3.97;;;;;;;5.30;69.33;97947.13;5092278;28;20031;-48
2024/03/25 03:40:57;;;;;;;7.50;3.55;;;;;;;5.05;68.37;97941.44;5092272;28;20096;-48
2024/03/25 03:43:23;;;;;;;8.38;4.80;;;;;;;4.91;69.47;97937.88;5091933;28;20050;-49
2024/03/25 03:45:49;;;;;;;6.20;4.18;;;;;;;4.93;69.66;97936.75;5092230;28;20102;-48
2024/03/25 03:48:14;;;;;;;6.28;3.72;;;;;;;4.71;68.94;97935.03;5092257;28;20515;-49
2024/03/25 03:50:40;;;;;;;10.85;3.72;;;;;;;4.50;69.98;97933.19;5092123;28;20028;-48
2024/03/25 03:53:06;;;;;;;7.93;3.95;;;;;;;4.56;70.99;97938.47;5092055;28;20016;-48
2024/03/25 03:55:31;;;;;;;7.45;3.33;;;;;;;4.68;70.88;97935.44;5090727;28;20028;-48
2024/03/25 03:57:57;;;;;;;18.90;12.77;;;;;;;4.65;70.38;97927.97;5092090;28;20059;-48
2024/03/25 04:00:22;;;;;;;15.27;10.85;;;;;;;4.58;70.50;97927.91;5090650;28;20469;-48
2024/03/25 04:02:48;;;;;;;6.95;5.40;;;;;;;4.53;70.90;97932.84;5090625;28;20027;-48
2024/03/25 04:05:14;;;;;;;8.93;5.18;;;;;;;4.55;71.18;97931.69;5091891;28;20027;-48
2024/03/25 04:07:40;;;;;;;7.78;4.15;;;;;;;4.72;70.63;97931.47;5090638;28;20497;-48
2024/03/25 04:10:06;;;;;;;7.68;3.97;;;;;;;4.64;70.72;97924.56;5091890;28;20029;-48
2024/03/25 04:12:32;;;;;;;11.45;8.23;;;;;;;4.35;70.08;97925.41;5091800;28;20052;-48
2024/03/25 04:14:58;;;;;;;9.45;4.18;;;;;;;4.15;71.18;97936.31;5091846;28;20075;-48
2024/03/25 04:17:23;;;;;;;7.35;4.30;;;;;;;4.18;71.88;97938.53;5091778;28;20442;-48
2024/03/25 04:19:51;;;;;;;11.75;3.95;;;;;;;4.14;71.93;97939.09;5091900;28;20470;-48
2024/03/25 04:22:16;;;;;;;8.38;4.45;;;;;;;4.10;71.58;97930.84;5073757;28;20024;-48
2024/03/25 04:24:46;;;;;;;9.10;4.75;;;;;;;4.19;72.01;97922.00;5091797;28;20031;-48
2024/03/25 04:27:12;;;;;;;9.80;4.35;;;;;;;3.99;71.79;97926.91;5091724;28;20034;-48
2024/03/25 04:29:38;;;;;;;10.85;4.72;;;;;;;3.90;72.02;97916.75;5091745;28;20024;-48
2024/03/25 04:32:04;;;;;;;5.88;3.20;;;;;;;3.76;72.08;97915.75;5090131;28;20135;-48
2024/03/25 04:34:30;;;;;;;9.70;4.10;;;;;;;3.71;72.96;97924.06;5090369;28;20043;-48
2024/03/25 04:36:56;;;;;;;17.75;8.75;;;;;;;3.75;73.06;97914.16;5091709;28;20080;-48
2024/03/25 04:39:22;;;;;;;13.57;7.57;;;;;;;3.89;73.14;97918.56;5091665;28;20516;-48
2024/03/25 04:41:48;;;;;;;13.75;4.70;;;;;;;4.03;73.15;97914.38;5091574;28;20111;-48
2024/03/25 04:44:14;;;;;;;12.00;4.25;;;;;;;3.95;72.06;97909.25;5091606;28;20484;-48
2024/03/25 04:46:40;;;;;;;7.35;3.70;;;;;;;3.87;72.54;97907.53;5090239;28;20020;-48
2024/03/25 04:49:06;;;;;;;5.82;3.22;;;;;;;3.79;72.57;97908.41;5073429;28;20119;-48
2024/03/25 04:51:32;;;;;;;6.03;3.55;;;;;;;3.74;72.32;97902.13;5090282;28;20157;-48
2024/03/25 04:53:58;;;;;;;17.08;13.48;;;;;;;3.52;72.63;97899.41;5090150;28;20035;-48
2024/03/25 04:56:23;;;;;;;7.90;4.82;;;;;;;3.53;73.61;97889.84;5092064;28;20039;-48
2024/03/25 04:58:49;;;;;;;10.38;5.18;;;;;;;3.65;74.62;97891.03;5094084;28;20502;-48
2024/03/25 05:01:15;;;;;;;8.90;3.97;;;;;;;4.06;74.32;97887.25;5095324;28;20421;-48
2024/03/25 05:03:41;;;;;;;11.93;5.45;;;;;;;4.17;73.01;97879.81;5093940;28;20107;-48
2024/03/25 05:06:10;;;;;;;7.47;4.00;;;;;;;4.26;72.44;97883.13;5095207;28;20031;-48
2024/03/25 05:08:39;;;;;;;8.32;4.57;;;;;;;4.14;71.35;97877.56;5095125;28;20502;-48
2024/03/25 05:11:05;;;;;;;7.03;3.60;;;;;;;4.03;71.78;97874.63;5093890;28;20024;-48
2024/03/25 05:13:30;;;;;;;7.35;3.92;;;;;;;3.97;71.69;97876.16;5093682;28;20035;-48
2024/03/25 05:15:56;;;;;;;5.47;3.53;;;;;;;3.78;71.92;97872.25;5093712;28;20131;-48
2024/03/25 05:18:22;;;;;;;5.40;3.20;;;;;;;3.78;72.19;97867.91;5095044;28;20026;-48
2024/03/25 05:20:47;;;;;;;11.13;4.85;;;;;;;3.74;72.37;97869.22;5094923;28;20020;-48
2024/03/25 05:23:13;;;;;;;6.32;3.72;;;;;;;3.87;73.03;97860.81;5094943;28;20061;-48
2024/03/25 05:25:38;;;;;;;6.90;3.95;;;;;;;3.95;73.03;97857.34;5093547;28;20031;-48
2024/03/25 05:28:05;;;;;;;8.82;3.65;;;;;;;4.03;72.33;97857.25;5094769;28;20105;-48
2024/03/25 05:30:30;;;;;;;5.65;3.65;;;;;;;4.27;72.37;97850.19;5094760;28;20164;-48
2024/03/25 05:32:56;;;;;;;9.95;5.15;;;;;;;4.40;71.14;97840.75;5094568;28;20522;-48
2024/03/25 05:35:22;;;;;;;6.05;3.58;;;;;;;4.35;70.46;97847.50;5093386;28;20409;-48
2024/03/25 05:37:47;;;;;;;10.00;6.03;;;;;;;4.34;70.40;97846.66;5093310;28;20028;-48
2024/03/25 05:40:15;;;;;;;16.20;12.05;;;;;;;4.19;70.72;97838.91;5093261;28;20061;-48
2024/03/25 05:42:41;;;;;;;18.65;9.45;;;;;;;4.13;70.99;97844.81;5093196;28;20026;-48
2024/03/25 05:45:09;;;;;;;9.43;5.97;;;;;;;4.16;70.88;97831.44;5093273;28;20486;-48
2024/03/25 05:47:34;;;;;;;10.38;3.92;;;;;;;4.63;70.50;97823.41;5094478;28;20395;-48
2024/03/25 05:50:02;;;;;;;5.70;4.25;;;;;;;5.18;68.32;97822.75;5093106;28;20048;-48
2024/03/25 05:52:29;;;;;;;13.25;8.57;;;;;;;5.59;66.49;97831.69;5092959;28;20024;-48
2024/03/25 05:54:54;;;;;;;11.68;5.93;;;;;;;6.17;65.12;97834.06;5093019;28;20444;-48
2024/03/25 05:57:20;;;;;;;9.25;8.15;;;;;;;6.86;64.27;97822.69;5094303;28;20103;-48
2024/03/25 05:59:46;;;;;;;25.45;13.00;;;;;;;7.57;63.06;97813.50;5092941;28;20493;-48
2024/03/25 06:02:12;;;;;;;23.55;15.57;;;;;;;8.61;60.81;97801.34;5094195;28;20023;-48
2024/03/25 06:04:38;;;;;;;16.48;7.20;;;;;;;9.48;58.28;97798.94;5094156;28;20020;-48
2024/03/25 06:07:03;;;;;;;12.55;7.85;;;;;;;9.74;57.32;97792.66;5093777;28;20031;-48
2024/03/25 06:09:29;;;;;;;19.15;5.05;;;;;;;9.50;56.98;97783.81;5092736;28;20030;-48
2024/03/25 06:11:54;;;;;;;13.73;6.03;;;;;;;9.48;56.75;97782.44;5092627;28;20174;-49
2024/03/25 06:14:20;;;;;;;16.98;6.35;;;;;;;9.79;55.86;97781.50;5092718;28;20089;-48
2024/03/25 06:16:46;;;;;;;10.48;4.85;;;;;;;9.93;52.95;97771.69;5092737;28;20031;-49
2024/03/25 06:19:12;;;;;;;7.97;3.92;;;;;;;10.31;52.79;97775.94;5092597;28;20024;-48
2024/03/25 06:21:38;;;;;;;11.52;3.50;;;;;;;10.50;49.89;97767.00;5092845;28;20497;-49
2024/03/25 06:24:04;;;;;;;8.50;3.33;;;;;;;10.27;50.13;97772.91;5093786;28;20055;-49
2024/03/25 06:26:29;;;;;;;9.13;3.95;;;;;;;10.64;51.25;97753.69;5093734;28;20115;-49
2024/03/25 06:28:55;;;;;;;11.85;4.60;;;;;;;11.27;50.49;97755.78;5092360;28;20047;-48
2024/03/25 06:34:15;;;;;;;11.15;6.72;;;;;;;12.47;47.28;97752.72;5093533;28;20031;-48
2024/03/25 06:36:41;;;;;;;9.52;3.30;;;;;;;12.53;45.40;97736.78;5092518;28;20032;-48
2024/03/25 06:39:07;;;;;;;7.40;3.78;;;;;;;12.62;45.21;97736.44;5093470;28;20032;-48
2024/03/25 06:41:33;;;;;;;14.98;4.30;;;;;;;13.14;44.50;97728.34;5093309;28;20032;-48
2024/03/25 06:43:58;;;;;;;14.38;7.00;;;;;;;13.34;42.49;97727.84;5093416;28;20020;-49
2024/03/25 06:46:24;;;;;;;5.05;3.17;;;;;;;13.62;43.21;97721.63;5093286;28;20049;-49
2024/03/25 06:48:52;;;;;;;7.30;3.70;;;;;;;13.98;40.50;97732.63;5093271;28;20058;-49
2024/03/25 06:51:18;;;;;;;7.32;3.72;;;;;;;14.19;39.66;97729.19;5093162;28;20144;-49
2024/03/25 06:53:44;;;;;;;8.13;3.95;;;;;;;14.63;39.38;97720.44;5093117;28;20081;-48
2024/03/25 06:56:10;;;;;;;7.95;4.25;;;;;;;15.33;38.97;97718.63;5093082;28;20038;-48
2024/03/25 06:58:36;;;;;;;10.73;4.40;;;;;;;16.05;37.19;97716.34;5093077;28;20032;-48
2024/03/25 07:01:09;;;;;;;9.25;3.72;;;;;;;16.41;36.00;97708.50;5092954;28;20104;-48
2024/03/25 07:03:38;;;;;;;9.27;5.10;;;;;;;16.14;35.42;97711.34;5091960;28;20389;-49
2024/03/25 07:06:05;;;;;;;7.45;3.80;;;;;;;16.17;34.98;97713.47;5092946;28;20024;-49
2024/03/25 07:08:31;;;;;;;8.40;4.20;;;;;;;16.37;34.77;97704.78;5091817;28;20506;-48
2024/03/25 07:10:57;;;;;;;14.30;4.40;;;;;;;16.84;34.90;97690.56;5091507;28;20019;-49
2024/03/25 07:13:24;;;;;;;11.18;4.28;;;;;;;17.50;33.60;97694.94;5091396;28;20032;-48
2024/03/25 07:15:50;;;;;;;6.45;3.83;;;;;;;18.23;32.06;97677.72;5091560;28;20027;-48
2024/03/25 07:18:16;;;;;;;5.93;3.22;;;;;;;18.68;31.46;97670.47;5092097;28;20031;-48
2024/03/25 07:20:43;;;;;;;8.45;4.35;;;;;;;19.41;31.22;97665.31;5092599;28;20024;-48
2024/03/25 07:23:09;;;;;;;11.00;4.78;;;;;;;20.06;29.65;97665.63;5092627;28;20055;-46
2024/03/25 07:25:35;;;;;;;5.68;3.35;;;;;;;20.75;29.31;97670.50;5091526;28;20024;-46
2024/03/25 07:28:02;;;;;;;15.25;4.05;;;;;;;20.83;27.83;97661.84;5092524;28;20028;-46
2024/03/25 07:30:28;;;;;;;7.10;3.33;;;;;;;20.33;28.46;97664.97;5092425;28;20055;-46
2024/03/25 07:32:58;;;;;;;12.77;2.88;;;;;;;20.61;28.45;97648.34;5091948;28;20048;-46
2024/03/25 07:35:25;;;;;;;6.00;3.40;;;;;;;20.66;27.96;97648.25;5074381;28;20501;-46
2024/03/25 07:37:52;;;;;;;9.25;3.53;;;;;;;20.63;28.62;97643.53;5092347;28;20056;-46
2024/03/25 07:40:22;;;;;;;8.45;4.90;;;;;;;20.97;28.73;97639.72;5091289;28;20070;-46
2024/03/25 07:42:51;;;;;;;10.38;4.18;;;;;;;21.64;28.02;97639.31;5092261;28;20020;-46
2024/03/25 07:45:16;;;;;;;11.88;3.60;;;;;;;22.08;26.70;97641.31;5090894;28;20024;-46
2024/03/25 07:47:42;;;;;;;22.50;5.32;;;;;;;22.51;27.68;97640.88;5092219;28;20494;-47
2024/03/25 07:50:08;;;;;;;11.88;4.28;;;;;;;23.09;25.95;97646.44;5092219;28;20027;-45
2024/03/25 07:52:39;;;;;;;6.78;3.13;;;;;;;22.45;25.80;97652.78;5092148;28;20487;-45
2024/03/25 07:55:06;;;;;;;7.95;2.97;;;;;;;21.66;26.90;97655.84;5092436;28;20370;-45
2024/03/25 07:57:32;;;;;;;10.25;2.70;;;;;;;20.80;27.65;97651.75;5092045;28;20444;-45
2024/03/25 08:00:01;;;;;;;16.85;4.18;;;;;;;20.51;29.20;97641.28;5090816;28;20107;-45
2024/03/25 08:02:26;;;;;;;11.18;3.22;;;;;;;21.11;28.22;97636.00;5090746;28;20020;-45
2024/03/25 08:04:52;;;;;;;11.73;3.45;;;;;;;21.81;27.86;97636.03;5090749;28;20062;-45
2024/03/25 08:07:18;;;;;;;10.52;3.08;;;;;;;22.47;26.26;97623.88;5092268;28;20028;-45
2024/03/25 08:09:43;;;;;;;6.25;3.05;;;;;;;22.43;26.69;97627.47;5091953;28;20537;-45
2024/03/25 08:12:09;;;;;;;4.60;2.50;;;;;;;22.36;26.10;97619.09;5091804;28;20123;-45
2024/03/25 08:14:35;;;;;;;5.05;2.53;;;;;;;22.10;26.76;97620.41;5090611;28;20413;-45
2024/03/25 08:17:02;;;;;;;5.60;2.72;;;;;;;22.01;26.75;97614.19;5091901;28;20111;-45
2024/03/25 08:19:28;;;;;;;7.90;2.42;;;;;;;21.64;25.98;97613.41;5090553;28;20031;-45
2024/03/25 08:21:54;;;;;;;6.65;2.47;;;;;;;21.20;26.81;97614.75;5090487;28;20393;-47
2024/03/25 08:24:19;;;;;;;6.38;2.88;;;;;;;21.02;26.77;97610.31;5091784;28;20106;-47
2024/03/25 08:26:45;;;;;;;5.68;2.25;;;;;;;20.64;26.99;97608.53;5091771;28;20048;-46
2024/03/25 08:29:23;;;;;;;3.13;1.95;;;;;;;20.47;27.22;97611.75;5091761;28;20405;-46
2024/03/25 08:31:48;;;;;;;11.52;4.15;;;;;;;19.71;28.70;97602.97;5095670;28;20056;-46
2024/03/25 08:34:22;;;;;;;9.68;2.40;;;;;;;19.76;28.42;97597.59;5095592;28;20044;-46
2024/03/25 08:36:47;;;;;;;5.13;2.22;;;;;;;20.33;28.83;97597.56;5094801;28;20032;-46
2024/03/25 08:39:13;;;;;;;2.97;1.67;;;;;;;20.69;26.36;97603.16;5094436;28;20020;-47
2024/03/25 08:41:39;;;;;;;5.00;2.40;;;;;;;21.16;26.07;97592.44;5095585;28;20020;-46
2024/03/25 08:44:07;;;;;;;4.53;2.78;;;;;;;21.52;26.53;97589.09;5094629;28;20550;-46
2024/03/25 08:46:32;;;;;;;9.00;2.03;;;;;;;21.33;24.76;97575.84;5095582;28;20153;-46
2024/03/25 08:48:58;;;;;;;13.07;2.47;;;;;;;20.71;26.23;97574.31;5095803;28;20048;-46
2024/03/25 08:51:24;;;;;;;7.40;3.05;;;;;;;22.01;25.53;97574.13;5095505;28;20486;-46
2024/03/25 08:53:50;;;;;;;9.32;3.10;;;;;;;23.19;24.90;97571.22;5094004;28;20024;-46
2024/03/25 08:56:15;;;;;;;2.85;1.55;;;;;;;22.87;21.98;97567.78;5095405;28;20024;-46
2024/03/25 08:58:41;;;;;;;8.40;2.13;;;;;;;22.03;23.46;97555.13;5094184;28;20020;-46
2024/03/25 09:01:09;;;;;;;7.70;3.42;;;;;;;21.97;24.43;97559.78;5093957;28;20023;-46
2024/03/25 09:03:34;;;;;;;4.60;2.25;;;;;;;22.44;23.91;97551.53;5095497;28;20028;-45
2024/03/25 09:06:00;;;;;;;5.15;2.45;;;;;;;22.26;23.58;97550.63;5094020;28;20031;-45
2024/03/25 09:08:26;;;;;;;7.07;1.90;;;;;;;21.35;23.47;97553.09;5093906;28;20028;-45
2024/03/25 09:11:06;;;;;;;6.47;2.70;;;;;;;20.68;24.31;97542.91;5093888;28;20032;-45
2024/03/25 09:13:32;;;;;;;15.50;4.97;;;;;;;20.52;25.80;97534.38;5093747;28;20566;-45
2024/03/25 09:15:58;;;;;;;12.60;7.85;;;;;;;20.37;25.92;97531.97;5095065;28;20031;-45
2024/03/25 09:18:24;;;;;;;13.30;3.72;;;;;;;19.81;26.30;97532.84;5093724;28;20401;-45
2024/03/25 09:20:50;;;;;;;17.63;2.63;;;;;;;19.41;26.51;97533.06;5095000;28;20028;-45
2024/03/25 09:23:17;;;;;;;10.70;5.40;;;;;;;19.40;26.73;97522.72;5093666;28;20130;-45
2024/03/25 09:25:54;;;;;;;16.30;7.53;;;;;;;19.34;27.46;97525.44;5094882;28;20020;-47
2024/03/25 09:28:20;;;;;;;14.93;6.90;;;;;;;20.02;26.94;97520.00;5093798;28;20111;-47
2024/03/25 09:30:48;;;;;;;17.42;8.68;;;;;;;20.27;26.10;97519.59;5094787;28;20150;-46
2024/03/25 09:33:14;;;;;;;22.80;11.48;;;;;;;20.42;26.70;97510.53;5094488;28;20048;-47
2024/03/25 09:35:40;;;;;;;16.75;3.05;;;;;;;20.33;25.57;97505.09;5093330;28;20115;-47
2024/03/25 09:38:06;;;;;;;11.30;3.17;;;;;;;20.10;25.96;97501.50;5094558;28;20028;-47
2024/03/25 09:40:32;;;;;;;11.98;8.85;;;;;;;20.56;25.93;97499.91;5093274;28;20023;-47
2024/03/25 09:43:01;;;;;;;23.05;11.75;;;;;;;20.97;25.85;97501.03;5094017;28;20030;-47
2024/03/25 09:45:29;;;;;;;15.55;9.95;;;;;;;21.20;25.24;97494.69;5094505;28;20027;-46
2024/03/25 09:47:55;;;;;;;9.32;4.82;;;;;;;21.17;24.97;97492.63;5094464;28;20024;-46
2024/03/25 09:50:22;;;;;;;14.80;7.70;;;;;;;21.27;24.62;97489.75;5094408;28;20091;-47
2024/03/25 09:52:51;;;;;;;25.20;7.72;;;;;;;21.74;24.73;97482.31;5093291;28;20033;-46
2024/03/25 09:55:17;;;;;;;10.82;6.47;;;;;;;22.16;24.02;97468.78;5094305;28;20461;-47
2024/03/25 09:57:44;;;;;;;26.52;13.05;;;;;;;22.42;24.45;97458.25;5093094;28;20023;-47
2024/03/25 10:00:11;;;;;;;12.50;5.63;;;;;;;22.77;23.27;97453.03;5094148;28;20036;-46
2024/03/25 10:02:38;;;;;;;9.85;2.60;;;;;;;22.77;22.11;97450.34;5093084;28;20020;-46
2024/03/25 10:05:05;;;;;;;11.10;3.80;;;;;;;22.15;23.08;97443.13;5092760;28;20062;-47
2024/03/25 10:07:31;;;;;;;19.98;10.68;;;;;;;22.48;23.16;97443.66;5094044;28;20020;-47
2024/03/25 10:09:58;;;;;;;20.00;9.18;;;;;;;22.97;22.57;97424.13;5092975;28;20027;-47
2024/03/25 10:12:24;;;;;;;16.67;8.02;;;;;;;22.82;22.78;97436.84;5093816;28;20020;-46
2024/03/25 10:14:50;;;;;;;5.53;3.35;;;;;;;23.17;22.53;97422.75;5093925;28;20032;-46
2024/03/25 10:17:16;;;;;;;7.55;3.72;;;;;;;23.53;21.20;97407.16;5093944;28;20490;-47
2024/03/25 10:19:41;;;;;;;32.95;16.27;;;;;;;23.62;22.22;97411.72;5093884;28;20107;-46
2024/03/25 10:22:08;;;;;;;13.52;7.32;;;;;;;24.26;21.10;97402.94;5093829;28;20071;-47
2024/03/25 10:24:44;;;;;;;11.82;4.72;;;;;;;24.78;20.62;97402.72;5092712;28;20031;-47
2024/03/25 10:27:31;;;;;;;10.52;3.85;;;;;;;24.89;20.43;97405.78;5093750;28;20035;-46
2024/03/25 10:29:56;;;;;;;7.57;4.72;;;;;;;25.61;20.14;97401.16;5091988;28;20040;-47
2024/03/25 10:32:28;;;;;;;6.10;2.60;;;;;;;25.65;19.19;97380.56;5091992;28;20544;-47
2024/03/25 10:34:54;;;;;;;7.75;2.58;;;;;;;25.06;19.27;97380.75;5093565;28;20024;-47
2024/03/25 10:37:24;;;;;;;6.85;3.40;;;;;;;23.97;20.02;97377.66;5093488;28;20374;-47
2024/03/25 10:39:56;;;;;;;12.30;5.20;;;;;;;23.00;21.31;97361.94;5093435;28;20032;-47
2024/03/25 10:42:22;;;;;;;10.65;3.95;;;;;;;22.45;22.61;97360.59;5093700;28;20020;-47
2024/03/25 10:44:49;;;;;;;12.15;4.60;;;;;;;22.63;22.38;97364.88;5092348;28;20028;-46
2024/03/25 10:47:21;;;;;;;10.50;5.65;;;;;;;23.23;21.44;97359.94;5093293;28;20067;-47
2024/03/25 10:49:57;;;;;;;12.65;5.07;;;;;;;23.47;21.12;97343.38;5092333;28;20482;-47
2024/03/25 10:52:26;;;;;;;9.15;3.75;;;;;;;23.40;20.64;97340.38;5093133;28;20454;-47
2024/03/25 10:54:54;;;;;;;9.27;5.57;;;;;;;22.83;21.30;97336.75;5091007;28;20024;-47
2024/03/25 10:57:20;;;;;;;7.78;4.03;;;;;;;22.16;22.84;97337.84;5093059;28;20379;-47
2024/03/25 10:59:46;;;;;;;9.00;3.30;;;;;;;22.41;22.02;97339.03;5092080;28;20056;-47
2024/03/25 11:02:12;;;;;;;11.18;3.72;;;;;;;23.10;21.58;97326.88;5092958;28;20566;-47
2024/03/25 11:04:40;;;;;;;10.85;4.80;;;;;;;23.30;21.01;97322.75;5091708;28;20452;-47
2024/03/25 11:07:07;;;;;;;9.77;3.85;;;;;;;23.11;20.87;97317.75;5093208;28;20074;-47
2024/03/25 11:09:37;;;;;;;8.82;4.50;;;;;;;22.98;21.20;97313.31;5091743;28;20046;-47
2024/03/25 11:12:04;;;;;;;18.40;8.35;;;;;;;23.09;21.87;97303.91;5092832;28;20031;-47
2024/03/25 11:14:32;;;;;;;13.40;6.50;;;;;;;23.51;21.20;97298.78;5092807;28;20480;-47
2024/03/25 11:17:01;;;;;;;7.82;4.55;;;;;;;23.60;21.09;97302.22;5092729;28;20024;-47
2024/03/25 11:19:29;;;;;;;6.85;3.45;;;;;;;22.87;21.80;97294.13;5091537;28;20020;-46
2024/03/25 11:22:06;;;;;;;13.55;7.00;;;;;;;22.27;22.48;97282.25;5091346;28;20402;-47
2024/03/25 11:24:32;;;;;;;11.80;6.72;;;;;;;21.72;22.84;97286.91;5092659;28;20034;-46
2024/03/25 11:27:00;;;;;;;16.95;14.40;;;;;;;21.35;22.79;97283.53;5092515;28;20024;-46
2024/03/25 11:29:26;;;;;;;9.65;7.00;;;;;;;21.09;23.32;97274.59;5091513;28;20024;-45
2024/03/25 11:31:53;;;;;;;12.30;8.05;;;;;;;21.30;24.05;97274.88;5092522;28;20024;-45
2024/03/25 11:34:20;;;;;;;13.70;5.93;;;;;;;21.03;24.04;97270.47;5092197;28;20044;-45